sensor_id;sensor_type;location;lat;lon;timestamp;temperature;humidity
24632;DHT22;59977;48.782;9.190;2023-05-10T00:01:21;16.70;99.90
24632;DHT22;59977;48.782;9.190;2023-05-10T00:03:47;16.70;99.90
24632;DHT22;59977;48.782;9.190;2023-05-10T00:06:12;16.60;99.90
24632;DHT22;59977;48.782;9.190;2023-05-10T00:08:38;16.60;99.90
24632;DHT22;59977;48.782;9.190;2023-05-10T00:11:04;16.50;99.90
24632;DHT22;59977;48.782;9.190;2023-05-10T00:18:21;16.40;99.90
24632;DHT22;59977;48.782;9.190;2023-05-10T00:30:32;16.20;99.90
24632;DHT22;59977;48.782;9.190;2023-05-10T00:32:57;16.20;99.90
24632;DHT22;59977;48.782;9.190;2023-05-10T00:37:49;16.20;99.90
24632;DHT22;59977;48.782;9.190;2023-05-10T00:40:15;16.20;99.90
24632;DHT22;59977;48.782;9.190;2023-05-10T00:42:40;16.20;99.90
24632;DHT22;59977;48.782;9.190;2023-05-10T00:47:32;16.00;99.90
24632;DHT22;59977;48.782;9.190;2023-05-10T00:49:58;16.00;99.90
24632;DHT22;59977;48.782;9.190;2023-05-10T00:59:44;15.90;99.90
24632;DHT22;59977;48.782;9.190;2023-05-10T01:02:09;16.00;99.90
24632;DHT22;59977;48.782;9.190;2023-05-10T01:04:36;15.90;99.90
24632;DHT22;59977;48.782;9.190;2023-05-10T01:12:51;16.20;99.90
24632;DHT22;59977;48.782;9.190;2023-05-10T01:15:17;15.90;99.90
24632;DHT22;59977;48.782;9.190;2023-05-10T01:17:44;15.90;99.90
24632;DHT22;59977;48.782;9.190;2023-05-10T01:20:11;15.90;99.90
24632;DHT22;59977;48.782;9.190;2023-05-10T01:23:08;15.90;99.90
24632;DHT22;59977;48.782;9.190;2023-05-10T01:31:28;15.90;99.90
24632;DHT22;59977;48.782;9.190;2023-05-10T01:33:59;15.80;99.90
24632;DHT22;59977;48.782;9.190;2023-05-10T01:36:43;15.80;99.90
24632;DHT22;59977;48.782;9.190;2023-05-10T01:39:25;15.80;99.90
24632;DHT22;59977;48.782;9.190;2023-05-10T01:42:16;15.80;99.90
24632;DHT22;59977;48.782;9.190;2023-05-10T01:44:52;15.70;99.90
24632;DHT22;59977;48.782;9.190;2023-05-10T01:47:31;15.70;99.90
24632;DHT22;59977;48.782;9.190;2023-05-10T01:50:01;15.70;99.90
24632;DHT22;59977;48.782;9.190;2023-05-10T01:52:33;15.60;99.90
24632;DHT22;59977;48.782;9.190;2023-05-10T01:55:16;15.70;99.90
24632;DHT22;59977;48.782;9.190;2023-05-10T01:57:44;15.60;99.90
24632;DHT22;59977;48.782;9.190;2023-05-10T02:00:12;15.60;99.90
24632;DHT22;59977;48.782;9.190;2023-05-10T02:02:44;15.60;99.90
24632;DHT22;59977;48.782;9.190;2023-05-10T02:05:13;15.60;99.90
24632;DHT22;59977;48.782;9.190;2023-05-10T02:10:06;15.60;99.90
24632;DHT22;59977;48.782;9.190;2023-05-10T02:12:37;15.60;99.90
24632;DHT22;59977;48.782;9.190;2023-05-10T02:15:06;15.60;99.90
24632;DHT22;59977;48.782;9.190;2023-05-10T02:17:33;15.70;99.90
24632;DHT22;59977;48.782;9.190;2023-05-10T02:20:00;15.70;99.90
24632;DHT22;59977;48.782;9.190;2023-05-10T02:22:27;15.60;99.90
24632;DHT22;59977;48.782;9.190;2023-05-10T02:24:55;15.60;99.90
24632;DHT22;59977;48.782;9.190;2023-05-10T02:27:24;15.60;99.90
24632;DHT22;59977;48.782;9.190;2023-05-10T02:29:50;15.60;99.90
24632;DHT22;59977;48.782;9.190;2023-05-10T02:32:17;15.60;99.90
24632;DHT22;59977;48.782;9.190;2023-05-10T02:34:44;15.60;99.90
24632;DHT22;59977;48.782;9.190;2023-05-10T02:37:13;15.60;99.90
24632;DHT22;59977;48.782;9.190;2023-05-10T02:39:40;15.60;99.90
24632;DHT22;59977;48.782;9.190;2023-05-10T02:42:18;15.50;99.90
24632;DHT22;59977;48.782;9.190;2023-05-10T02:44:49;15.50;99.90
24632;DHT22;59977;48.782;9.190;2023-05-10T02:54:47;15.50;99.90
24632;DHT22;59977;48.782;9.190;2023-05-10T02:57:16;15.50;99.90
24632;DHT22;59977;48.782;9.190;2023-05-10T03:02:12;15.50;99.90
24632;DHT22;59977;48.782;9.190;2023-05-10T03:09:30;15.60;99.90
24632;DHT22;59977;48.782;9.190;2023-05-10T03:20:11;15.40;99.90
24632;DHT22;59977;48.782;9.190;2023-05-10T03:22:41;15.50;99.90
24632;DHT22;59977;48.782;9.190;2023-05-10T03:25:10;15.50;99.90
24632;DHT22;59977;48.782;9.190;2023-05-10T03:27:40;15.40;99.90
24632;DHT22;59977;48.782;9.190;2023-05-10T03:30:08;15.40;99.90
24632;DHT22;59977;48.782;9.190;2023-05-10T03:32:35;15.40;99.90
24632;DHT22;59977;48.782;9.190;2023-05-10T03:35:09;15.40;99.90
24632;DHT22;59977;48.782;9.190;2023-05-10T03:40:02;15.40;99.90
24632;DHT22;59977;48.782;9.190;2023-05-10T03:54:38;15.40;99.90
24632;DHT22;59977;48.782;9.190;2023-05-10T04:01:56;15.40;99.90
24632;DHT22;59977;48.782;9.190;2023-05-10T04:09:14;15.40;99.90
24632;DHT22;59977;48.782;9.190;2023-05-10T04:31:09;15.30;99.90
24632;DHT22;59977;48.782;9.190;2023-05-10T04:33:36;15.30;99.90
24632;DHT22;59977;48.782;9.190;2023-05-10T04:36:02;15.30;99.90
24632;DHT22;59977;48.782;9.190;2023-05-10T04:40:54;15.30;99.90
24632;DHT22;59977;48.782;9.190;2023-05-10T04:43:20;15.30;99.90
24632;DHT22;59977;48.782;9.190;2023-05-10T04:50:38;15.40;99.90
24632;DHT22;59977;48.782;9.190;2023-05-10T04:53:04;15.30;99.90
24632;DHT22;59977;48.782;9.190;2023-05-10T04:55:29;15.30;99.90
24632;DHT22;59977;48.782;9.190;2023-05-10T04:57:55;15.40;99.90
24632;DHT22;59977;48.782;9.190;2023-05-10T05:07:40;15.40;99.90
24632;DHT22;59977;48.782;9.190;2023-05-10T05:10:07;15.40;99.90
24632;DHT22;59977;48.782;9.190;2023-05-10T05:17:25;15.50;99.90
24632;DHT22;59977;48.782;9.190;2023-05-10T05:19:51;15.60;99.90
24632;DHT22;59977;48.782;9.190;2023-05-10T05:22:17;15.60;99.90
24632;DHT22;59977;48.782;9.190;2023-05-10T05:27:10;15.60;99.90
24632;DHT22;59977;48.782;9.190;2023-05-10T05:29:35;15.70;99.90
24632;DHT22;59977;48.782;9.190;2023-05-10T05:32:01;15.60;99.90
24632;DHT22;59977;48.782;9.190;2023-05-10T05:41:45;15.70;99.90
24632;DHT22;59977;48.782;9.190;2023-05-10T05:44:11;15.70;99.90
24632;DHT22;59977;48.782;9.190;2023-05-10T05:56:21;15.70;99.90
24632;DHT22;59977;48.782;9.190;2023-05-10T05:58:50;15.70;99.90
24632;DHT22;59977;48.782;9.190;2023-05-10T06:01:16;15.80;99.90
24632;DHT22;59977;48.782;9.190;2023-05-10T06:11:03;15.80;99.90
24632;DHT22;59977;48.782;9.190;2023-05-10T06:13:29;15.80;99.90
24632;DHT22;59977;48.782;9.190;2023-05-10T06:15:58;15.80;99.90
24632;DHT22;59977;48.782;9.190;2023-05-10T06:30:36;15.90;99.90
24632;DHT22;59977;48.782;9.190;2023-05-10T07:26:45;14.80;99.90
24632;DHT22;59977;48.782;9.190;2023-05-10T07:55:04;17.10;99.90
24632;DHT22;59977;48.782;9.190;2023-05-10T07:58:06;17.00;99.90
24632;DHT22;59977;48.782;9.190;2023-05-10T08:07:43;15.30;99.90
24632;DHT22;59977;48.782;9.190;2023-05-10T08:13:55;15.00;99.90
24632;DHT22;59977;48.782;9.190;2023-05-10T08:25:49;16.90;99.90
24632;DHT22;59977;48.782;9.190;2023-05-10T08:28:48;16.90;99.90
24632;DHT22;59977;48.782;9.190;2023-05-10T08:31:26;17.10;99.90
24632;DHT22;59977;48.782;9.190;2023-05-10T08:34:05;17.30;99.90
24632;DHT22;59977;48.782;9.190;2023-05-10T08:36:33;16.90;99.90
24632;DHT22;59977;48.782;9.190;2023-05-10T08:39:01;17.10;99.90
24632;DHT22;59977;48.782;9.190;2023-05-10T08:41:41;17.20;99.90
24632;DHT22;59977;48.782;9.190;2023-05-10T08:44:18;16.90;99.90
24632;DHT22;59977;48.782;9.190;2023-05-10T08:50:12;17.40;99.90
24632;DHT22;59977;48.782;9.190;2023-05-10T08:53:11;15.90;99.90
24632;DHT22;59977;48.782;9.190;2023-05-10T08:59:10;17.60;99.90
24632;DHT22;59977;48.782;9.190;2023-05-10T09:01:58;17.60;99.90
24632;DHT22;59977;48.782;9.190;2023-05-10T09:04:24;17.70;99.90
24632;DHT22;59977;48.782;9.190;2023-05-10T09:06:50;17.70;99.90
24632;DHT22;59977;48.782;9.190;2023-05-10T09:09:17;17.90;99.90
24632;DHT22;59977;48.782;9.190;2023-05-10T09:11:44;17.80;99.90
24632;DHT22;59977;48.782;9.190;2023-05-10T09:14:11;18.00;99.90
24632;DHT22;59977;48.782;9.190;2023-05-10T09:16:38;17.90;99.90
24632;DHT22;59977;48.782;9.190;2023-05-10T09:19:03;17.90;99.90
24632;DHT22;59977;48.782;9.190;2023-05-10T09:21:30;17.80;99.90
24632;DHT22;59977;48.782;9.190;2023-05-10T09:23:56;18.00;99.90
24632;DHT22;59977;48.782;9.190;2023-05-10T09:26:23;17.90;99.90
24632;DHT22;59977;48.782;9.190;2023-05-10T09:28:56;18.40;99.90
24632;DHT22;59977;48.782;9.190;2023-05-10T09:31:22;17.80;99.90
24632;DHT22;59977;48.782;9.190;2023-05-10T09:33:50;17.90;99.90
24632;DHT22;59977;48.782;9.190;2023-05-10T09:36:17;17.90;99.90
24632;DHT22;59977;48.782;9.190;2023-05-10T09:38:50;18.00;99.90
24632;DHT22;59977;48.782;9.190;2023-05-10T09:41:23;18.00;99.90
24632;DHT22;59977;48.782;9.190;2023-05-10T09:43:52;18.40;99.90
24632;DHT22;59977;48.782;9.190;2023-05-10T09:46:20;18.20;99.90
24632;DHT22;59977;48.782;9.190;2023-05-10T09:48:56;18.60;99.90
24632;DHT22;59977;48.782;9.190;2023-05-10T09:54:52;17.20;99.90
24632;DHT22;59977;48.782;9.190;2023-05-10T09:57:20;18.50;99.90
24632;DHT22;59977;48.782;9.190;2023-05-10T09:59:47;18.40;99.90
24632;DHT22;59977;48.782;9.190;2023-05-10T10:02:13;18.60;99.90
24632;DHT22;59977;48.782;9.190;2023-05-10T10:04:40;18.40;99.90
24632;DHT22;59977;48.782;9.190;2023-05-10T10:07:06;18.50;99.90
24632;DHT22;59977;48.782;9.190;2023-05-10T10:09:33;18.40;99.90
24632;DHT22;59977;48.782;9.190;2023-05-10T10:12:00;18.20;99.90
24632;DHT22;59977;48.782;9.190;2023-05-10T10:14:26;18.10;99.90
24632;DHT22;59977;48.782;9.190;2023-05-10T10:16:52;18.20;99.90
24632;DHT22;59977;48.782;9.190;2023-05-10T10:19:19;18.10;99.90
24632;DHT22;59977;48.782;9.190;2023-05-10T10:21:46;17.80;99.90
24632;DHT22;59977;48.782;9.190;2023-05-10T10:24:12;15.50;99.90
24632;DHT22;59977;48.782;9.190;2023-05-10T10:26:38;17.80;99.90
24632;DHT22;59977;48.782;9.190;2023-05-10T10:29:26;18.10;99.90
24632;DHT22;59977;48.782;9.190;2023-05-10T10:32:11;18.40;99.90
24632;DHT22;59977;48.782;9.190;2023-05-10T10:34:44;18.30;99.90
24632;DHT22;59977;48.782;9.190;2023-05-10T10:37:10;18.70;99.90
24632;DHT22;59977;48.782;9.190;2023-05-10T10:39:35;18.70;99.90
24632;DHT22;59977;48.782;9.190;2023-05-10T10:42:03;18.80;99.90
24632;DHT22;59977;48.782;9.190;2023-05-10T10:52:39;19.00;99.90
24632;DHT22;59977;48.782;9.190;2023-05-10T10:57:48;18.70;99.90
24632;DHT22;59977;48.782;9.190;2023-05-10T11:03:14;18.20;99.90
24632;DHT22;59977;48.782;9.190;2023-05-10T11:05:48;18.00;99.90
24632;DHT22;59977;48.782;9.190;2023-05-10T11:08:28;17.70;99.90
24632;DHT22;59977;48.782;9.190;2023-05-10T11:13:43;17.70;99.90
24632;DHT22;59977;48.782;9.190;2023-05-10T11:16:23;17.70;99.90
24632;DHT22;59977;48.782;9.190;2023-05-10T11:19:07;17.70;99.90
24632;DHT22;59977;48.782;9.190;2023-05-10T11:21:47;16.20;99.90
24632;DHT22;59977;48.782;9.190;2023-05-10T11:24:15;16.10;99.90
24632;DHT22;59977;48.782;9.190;2023-05-10T11:26:41;17.60;99.90
24632;DHT22;59977;48.782;9.190;2023-05-10T11:29:07;18.30;99.90
24632;DHT22;59977;48.782;9.190;2023-05-10T11:31:33;17.80;99.90
24632;DHT22;59977;48.782;9.190;2023-05-10T11:34:00;19.40;99.90
24632;DHT22;59977;48.782;9.190;2023-05-10T11:36:33;17.90;99.90
24632;DHT22;59977;48.782;9.190;2023-05-10T11:38:59;18.00;99.90
24632;DHT22;59977;48.782;9.190;2023-05-10T11:41:26;15.30;99.90
24632;DHT22;59977;48.782;9.190;2023-05-10T11:43:53;20.70;99.90
24632;DHT22;59977;48.782;9.190;2023-05-10T11:46:20;18.20;99.90
24632;DHT22;59977;48.782;9.190;2023-05-10T11:48:49;20.90;99.90
24632;DHT22;59977;48.782;9.190;2023-05-10T11:51:23;18.30;99.90
24632;DHT22;59977;48.782;9.190;2023-05-10T11:53:54;18.40;99.90
24632;DHT22;59977;48.782;9.190;2023-05-10T11:56:21;18.10;99.90
24632;DHT22;59977;48.782;9.190;2023-05-10T11:58:57;18.00;99.90
24632;DHT22;59977;48.782;9.190;2023-05-10T12:01:24;17.80;99.90
24632;DHT22;59977;48.782;9.190;2023-05-10T12:03:51;17.70;99.90
24632;DHT22;59977;48.782;9.190;2023-05-10T12:06:18;17.60;99.90
24632;DHT22;59977;48.782;9.190;2023-05-10T12:08:46;18.70;99.90
24632;DHT22;59977;48.782;9.190;2023-05-10T12:11:13;19.00;99.90
24632;DHT22;59977;48.782;9.190;2023-05-10T12:13:42;18.70;99.90
24632;DHT22;59977;48.782;9.190;2023-05-10T12:16:17;17.60;99.90
24632;DHT22;59977;48.782;9.190;2023-05-10T12:18:44;17.70;99.90
24632;DHT22;59977;48.782;9.190;2023-05-10T12:21:11;18.00;99.90
24632;DHT22;59977;48.782;9.190;2023-05-10T12:23:37;18.00;99.90
24632;DHT22;59977;48.782;9.190;2023-05-10T12:26:03;18.50;99.90
24632;DHT22;59977;48.782;9.190;2023-05-10T12:28:32;18.00;99.90
24632;DHT22;59977;48.782;9.190;2023-05-10T12:31:02;18.10;99.90
24632;DHT22;59977;48.782;9.190;2023-05-10T12:33:44;18.10;99.90
24632;DHT22;59977;48.782;9.190;2023-05-10T12:36:15;18.20;99.90
24632;DHT22;59977;48.782;9.190;2023-05-10T12:38:42;19.40;99.90
24632;DHT22;59977;48.782;9.190;2023-05-10T12:41:10;19.70;99.90
24632;DHT22;59977;48.782;9.190;2023-05-10T12:43:37;18.40;99.90
24632;DHT22;59977;48.782;9.190;2023-05-10T12:46:12;18.50;99.90
24632;DHT22;59977;48.782;9.190;2023-05-10T12:48:39;18.50;99.90
24632;DHT22;59977;48.782;9.190;2023-05-10T12:51:06;18.50;99.90
24632;DHT22;59977;48.782;9.190;2023-05-10T12:53:35;18.70;99.90
24632;DHT22;59977;48.782;9.190;2023-05-10T12:56:01;18.70;99.90
24632;DHT22;59977;48.782;9.190;2023-05-10T12:58:27;19.40;99.90
24632;DHT22;59977;48.782;9.190;2023-05-10T13:00:52;18.50;99.90
24632;DHT22;59977;48.782;9.190;2023-05-10T13:03:18;18.20;99.90
24632;DHT22;59977;48.782;9.190;2023-05-10T13:05:44;18.00;99.90
24632;DHT22;59977;48.782;9.190;2023-05-10T13:08:09;18.10;99.90
24632;DHT22;59977;48.782;9.190;2023-05-10T13:10:35;18.00;99.90
24632;DHT22;59977;48.782;9.190;2023-05-10T13:13:01;17.90;99.90
24632;DHT22;59977;48.782;9.190;2023-05-10T13:15:26;18.50;99.90
24632;DHT22;59977;48.782;9.190;2023-05-10T13:17:53;17.80;99.90
24632;DHT22;59977;48.782;9.190;2023-05-10T13:20:19;17.80;99.90
24632;DHT22;59977;48.782;9.190;2023-05-10T13:22:45;17.80;99.90
24632;DHT22;59977;48.782;9.190;2023-05-10T13:25:11;17.90;99.90
24632;DHT22;59977;48.782;9.190;2023-05-10T13:27:38;17.90;99.90
24632;DHT22;59977;48.782;9.190;2023-05-10T13:30:05;17.90;99.90
24632;DHT22;59977;48.782;9.190;2023-05-10T13:32:31;18.00;99.90
24632;DHT22;59977;48.782;9.190;2023-05-10T13:34:56;18.00;99.90
24632;DHT22;59977;48.782;9.190;2023-05-10T13:37:22;18.20;99.90
24632;DHT22;59977;48.782;9.190;2023-05-10T13:39:48;18.40;99.90
24632;DHT22;59977;48.782;9.190;2023-05-10T13:42:14;18.50;99.90
24632;DHT22;59977;48.782;9.190;2023-05-10T13:44:39;19.00;99.90
24632;DHT22;59977;48.782;9.190;2023-05-10T13:47:05;18.60;99.90
24632;DHT22;59977;48.782;9.190;2023-05-10T13:49:31;18.60;99.90
24632;DHT22;59977;48.782;9.190;2023-05-10T13:51:57;18.50;99.90
24632;DHT22;59977;48.782;9.190;2023-05-10T13:54:23;18.40;99.90
24632;DHT22;59977;48.782;9.190;2023-05-10T13:56:49;18.40;99.90
24632;DHT22;59977;48.782;9.190;2023-05-10T13:59:15;18.40;99.90
24632;DHT22;59977;48.782;9.190;2023-05-10T14:01:41;18.40;99.90
24632;DHT22;59977;48.782;9.190;2023-05-10T14:04:08;18.50;99.90
24632;DHT22;59977;48.782;9.190;2023-05-10T14:06:36;19.20;99.90
24632;DHT22;59977;48.782;9.190;2023-05-10T14:09:02;19.30;99.90
24632;DHT22;59977;48.782;9.190;2023-05-10T14:11:28;18.60;99.90
24632;DHT22;59977;48.782;9.190;2023-05-10T14:13:54;18.70;99.90
24632;DHT22;59977;48.782;9.190;2023-05-10T14:16:20;18.70;99.90
24632;DHT22;59977;48.782;9.190;2023-05-10T14:18:46;18.70;99.90
24632;DHT22;59977;48.782;9.190;2023-05-10T14:21:13;18.70;99.90
24632;DHT22;59977;48.782;9.190;2023-05-10T14:23:39;18.70;99.90
24632;DHT22;59977;48.782;9.190;2023-05-10T14:26:05;18.90;99.90
24632;DHT22;59977;48.782;9.190;2023-05-10T14:28:32;18.90;99.60
24632;DHT22;59977;48.782;9.190;2023-05-10T14:30:58;19.10;99.90
24632;DHT22;59977;48.782;9.190;2023-05-10T14:33:24;19.10;99.40
24632;DHT22;59977;48.782;9.190;2023-05-10T14:35:50;19.10;98.00
24632;DHT22;59977;48.782;9.190;2023-05-10T14:38:16;19.00;98.60
24632;DHT22;59977;48.782;9.190;2023-05-10T14:40:42;18.90;99.10
24632;DHT22;59977;48.782;9.190;2023-05-10T14:43:08;19.10;98.60
24632;DHT22;59977;48.782;9.190;2023-05-10T14:45:34;19.10;98.50
24632;DHT22;59977;48.782;9.190;2023-05-10T14:48:00;19.90;98.50
24632;DHT22;59977;48.782;9.190;2023-05-10T14:50:30;19.00;98.40
24632;DHT22;59977;48.782;9.190;2023-05-10T14:52:56;19.10;98.80
24632;DHT22;59977;48.782;9.190;2023-05-10T14:55:22;19.10;98.70
24632;DHT22;59977;48.782;9.190;2023-05-10T14:57:48;19.10;98.70
24632;DHT22;59977;48.782;9.190;2023-05-10T15:00:15;19.10;99.20
24632;DHT22;59977;48.782;9.190;2023-05-10T15:02:41;19.30;98.90
24632;DHT22;59977;48.782;9.190;2023-05-10T15:05:07;19.20;98.10
24632;DHT22;59977;48.782;9.190;2023-05-10T15:07:33;19.10;98.30
24632;DHT22;59977;48.782;9.190;2023-05-10T15:09:58;19.20;98.30
24632;DHT22;59977;48.782;9.190;2023-05-10T15:12:24;19.10;98.80
24632;DHT22;59977;48.782;9.190;2023-05-10T15:14:50;19.10;98.80
24632;DHT22;59977;48.782;9.190;2023-05-10T15:17:15;19.10;98.60
24632;DHT22;59977;48.782;9.190;2023-05-10T15:19:41;19.00;98.50
24632;DHT22;59977;48.782;9.190;2023-05-10T15:22:08;18.90;98.60
24632;DHT22;59977;48.782;9.190;2023-05-10T15:24:33;18.80;99.30
24632;DHT22;59977;48.782;9.190;2023-05-10T15:26:59;18.80;99.20
24632;DHT22;59977;48.782;9.190;2023-05-10T15:29:26;18.90;99.30
24632;DHT22;59977;48.782;9.190;2023-05-10T15:31:51;18.90;99.30
24632;DHT22;59977;48.782;9.190;2023-05-10T15:34:17;19.00;99.70
24632;DHT22;59977;48.782;9.190;2023-05-10T15:36:44;19.10;99.70
24632;DHT22;59977;48.782;9.190;2023-05-10T15:39:10;19.30;99.70
24632;DHT22;59977;48.782;9.190;2023-05-10T15:41:36;19.40;99.50
24632;DHT22;59977;48.782;9.190;2023-05-10T15:44:02;19.50;99.00
24632;DHT22;59977;48.782;9.190;2023-05-10T15:46:28;19.50;99.20
24632;DHT22;59977;48.782;9.190;2023-05-10T15:48:54;19.40;98.50
24632;DHT22;59977;48.782;9.190;2023-05-10T15:51:20;20.60;98.50
24632;DHT22;59977;48.782;9.190;2023-05-10T15:53:45;19.30;97.50
24632;DHT22;59977;48.782;9.190;2023-05-10T15:56:11;19.20;96.60
24632;DHT22;59977;48.782;9.190;2023-05-10T15:58:38;19.20;97.00
24632;DHT22;59977;48.782;9.190;2023-05-10T16:01:04;19.20;96.20
24632;DHT22;59977;48.782;9.190;2023-05-10T16:03:33;19.10;96.30
24632;DHT22;59977;48.782;9.190;2023-05-10T16:05:59;19.30;96.10
24632;DHT22;59977;48.782;9.190;2023-05-10T16:08:25;19.40;95.60
24632;DHT22;59977;48.782;9.190;2023-05-10T16:10:51;19.70;96.10
24632;DHT22;59977;48.782;9.190;2023-05-10T16:13:17;18.80;96.10
24632;DHT22;59977;48.782;9.190;2023-05-10T16:15:43;18.80;96.10
24632;DHT22;59977;48.782;9.190;2023-05-10T16:18:08;18.80;96.10
24632;DHT22;59977;48.782;9.190;2023-05-10T16:20:35;18.60;96.20
24632;DHT22;59977;48.782;9.190;2023-05-10T16:23:05;19.70;96.80
24632;DHT22;59977;48.782;9.190;2023-05-10T16:25:32;18.60;96.60
24632;DHT22;59977;48.782;9.190;2023-05-10T16:27:59;18.50;96.40
24632;DHT22;59977;48.782;9.190;2023-05-10T16:30:25;18.50;96.90
24632;DHT22;59977;48.782;9.190;2023-05-10T16:32:52;19.20;97.50
24632;DHT22;59977;48.782;9.190;2023-05-10T16:35:18;18.50;97.00
24632;DHT22;59977;48.782;9.190;2023-05-10T16:37:44;20.00;97.10
24632;DHT22;59977;48.782;9.190;2023-05-10T16:40:10;18.60;97.20
24632;DHT22;59977;48.782;9.190;2023-05-10T16:42:35;18.40;97.10
24632;DHT22;59977;48.782;9.190;2023-05-10T16:45:01;18.40;96.80
24632;DHT22;59977;48.782;9.190;2023-05-10T16:47:32;18.30;97.00
24632;DHT22;59977;48.782;9.190;2023-05-10T16:49:59;18.20;97.60
24632;DHT22;59977;48.782;9.190;2023-05-10T16:52:24;18.20;97.30
24632;DHT22;59977;48.782;9.190;2023-05-10T16:54:50;18.20;97.90
24632;DHT22;59977;48.782;9.190;2023-05-10T16:57:16;18.10;98.80
24632;DHT22;59977;48.782;9.190;2023-05-10T16:59:42;17.10;97.90
24632;DHT22;59977;48.782;9.190;2023-05-10T17:02:07;19.60;99.00
24632;DHT22;59977;48.782;9.190;2023-05-10T17:04:34;18.00;98.90
24632;DHT22;59977;48.782;9.190;2023-05-10T17:06:59;18.00;99.00
24632;DHT22;59977;48.782;9.190;2023-05-10T17:09:25;18.00;98.90
24632;DHT22;59977;48.782;9.190;2023-05-10T17:11:51;17.80;99.30
24632;DHT22;59977;48.782;9.190;2023-05-10T17:14:16;17.80;99.30
24632;DHT22;59977;48.782;9.190;2023-05-10T17:16:42;20.00;99.90
24632;DHT22;59977;48.782;9.190;2023-05-10T17:19:08;19.70;99.90
24632;DHT22;59977;48.782;9.190;2023-05-10T17:21:33;19.20;99.90
24632;DHT22;59977;48.782;9.190;2023-05-10T17:23:59;17.60;99.90
24632;DHT22;59977;48.782;9.190;2023-05-10T17:26:25;17.50;99.90
24632;DHT22;59977;48.782;9.190;2023-05-10T17:28:52;19.00;99.90
24632;DHT22;59977;48.782;9.190;2023-05-10T17:31:19;17.50;99.90
24632;DHT22;59977;48.782;9.190;2023-05-10T17:33:44;20.70;99.90
24632;DHT22;59977;48.782;9.190;2023-05-10T17:36:10;19.70;99.90
24632;DHT22;59977;48.782;9.190;2023-05-10T17:38:36;20.00;99.90
24632;DHT22;59977;48.782;9.190;2023-05-10T17:41:02;17.50;99.90
24632;DHT22;59977;48.782;9.190;2023-05-10T17:43:28;17.50;99.90
24632;DHT22;59977;48.782;9.190;2023-05-10T17:45:53;17.70;99.90
24632;DHT22;59977;48.782;9.190;2023-05-10T17:48:19;17.50;99.90
24632;DHT22;59977;48.782;9.190;2023-05-10T17:50:45;17.50;99.90
24632;DHT22;59977;48.782;9.190;2023-05-10T17:53:10;17.40;99.90
24632;DHT22;59977;48.782;9.190;2023-05-10T17:55:39;17.40;99.90
24632;DHT22;59977;48.782;9.190;2023-05-10T17:58:05;16.30;99.90
24632;DHT22;59977;48.782;9.190;2023-05-10T18:00:31;18.30;99.90
24632;DHT22;59977;48.782;9.190;2023-05-10T18:02:57;17.30;99.90
24632;DHT22;59977;48.782;9.190;2023-05-10T18:05:22;19.90;99.90
24632;DHT22;59977;48.782;9.190;2023-05-10T18:07:48;17.20;99.90
24632;DHT22;59977;48.782;9.190;2023-05-10T18:10:14;17.20;99.90
24632;DHT22;59977;48.782;9.190;2023-05-10T18:12:40;17.30;99.90
24632;DHT22;59977;48.782;9.190;2023-05-10T18:15:06;17.00;99.90
24632;DHT22;59977;48.782;9.190;2023-05-10T18:17:32;17.00;99.90
24632;DHT22;59977;48.782;9.190;2023-05-10T18:19:59;19.20;99.90
24632;DHT22;59977;48.782;9.190;2023-05-10T18:26:02;16.30;99.90
24632;DHT22;59977;48.782;9.190;2023-05-10T18:28:28;17.30;99.90
24632;DHT22;59977;48.782;9.190;2023-05-10T18:30:56;16.90;99.90
24632;DHT22;59977;48.782;9.190;2023-05-10T18:33:44;17.00;99.90
24632;DHT22;59977;48.782;9.190;2023-05-10T18:36:09;16.70;99.90
24632;DHT22;59977;48.782;9.190;2023-05-10T18:38:35;19.50;99.90
24632;DHT22;59977;48.782;9.190;2023-05-10T18:41:02;18.40;99.90
24632;DHT22;59977;48.782;9.190;2023-05-10T18:43:51;17.90;99.90
24632;DHT22;59977;48.782;9.190;2023-05-10T18:46:32;16.50;99.90
24632;DHT22;59977;48.782;9.190;2023-05-10T18:59:22;16.20;99.90
24632;DHT22;59977;48.782;9.190;2023-05-10T19:14:45;16.10;99.90
24632;DHT22;59977;48.782;9.190;2023-05-10T19:17:12;15.00;99.90
24632;DHT22;59977;48.782;9.190;2023-05-10T19:19:38;13.50;99.90
24632;DHT22;59977;48.782;9.190;2023-05-10T19:27:26;16.00;99.90
24632;DHT22;59977;48.782;9.190;2023-05-10T19:40:22;15.90;99.90
24632;DHT22;59977;48.782;9.190;2023-05-10T20:01:21;15.80;99.90
24632;DHT22;59977;48.782;9.190;2023-05-10T20:14:09;15.80;99.90
24632;DHT22;59977;48.782;9.190;2023-05-10T20:21:46;15.80;99.90
24632;DHT22;59977;48.782;9.190;2023-05-10T20:24:11;15.80;99.90
24632;DHT22;59977;48.782;9.190;2023-05-10T20:26:37;15.80;99.90
24632;DHT22;59977;48.782;9.190;2023-05-10T20:29:02;16.60;99.90
24632;DHT22;59977;48.782;9.190;2023-05-10T20:31:28;12.90;99.90
24632;DHT22;59977;48.782;9.190;2023-05-10T20:33:53;18.60;99.90
24632;DHT22;59977;48.782;9.190;2023-05-10T20:36:19;15.80;99.90
24632;DHT22;59977;48.782;9.190;2023-05-10T20:38:45;17.60;99.90
24632;DHT22;59977;48.782;9.190;2023-05-10T20:41:10;15.80;99.90
24632;DHT22;59977;48.782;9.190;2023-05-10T20:43:36;15.80;99.90
24632;DHT22;59977;48.782;9.190;2023-05-10T20:46:02;15.70;99.90
24632;DHT22;59977;48.782;9.190;2023-05-10T20:48:30;15.70;99.90
24632;DHT22;59977;48.782;9.190;2023-05-10T20:50:57;16.90;99.90
24632;DHT22;59977;48.782;9.190;2023-05-10T20:53:23;15.70;99.90
24632;DHT22;59977;48.782;9.190;2023-05-10T20:55:49;18.80;99.90
24632;DHT22;59977;48.782;9.190;2023-05-10T20:58:14;15.80;99.90
24632;DHT22;59977;48.782;9.190;2023-05-10T21:00:40;12.60;99.90
24632;DHT22;59977;48.782;9.190;2023-05-10T21:03:05;17.90;99.90
24632;DHT22;59977;48.782;9.190;2023-05-10T21:05:31;13.00;99.90
24632;DHT22;59977;48.782;9.190;2023-05-10T21:07:57;15.60;99.90
24632;DHT22;59977;48.782;9.190;2023-05-10T21:10:23;19.00;99.90
24632;DHT22;59977;48.782;9.190;2023-05-10T21:12:50;15.50;99.90
24632;DHT22;59977;48.782;9.190;2023-05-10T21:15:16;15.70;99.90
24632;DHT22;59977;48.782;9.190;2023-05-10T21:17:42;15.40;99.90
24632;DHT22;59977;48.782;9.190;2023-05-10T21:20:08;17.30;99.90
24632;DHT22;59977;48.782;9.190;2023-05-10T21:22:35;15.50;99.90
24632;DHT22;59977;48.782;9.190;2023-05-10T21:25:02;15.40;99.90
24632;DHT22;59977;48.782;9.190;2023-05-10T21:27:27;15.70;99.90
24632;DHT22;59977;48.782;9.190;2023-05-10T21:29:53;18.70;99.90
24632;DHT22;59977;48.782;9.190;2023-05-10T21:32:19;15.50;99.90
24632;DHT22;59977;48.782;9.190;2023-05-10T21:34:44;15.50;99.90
24632;DHT22;59977;48.782;9.190;2023-05-10T21:37:10;15.40;99.90
24632;DHT22;59977;48.782;9.190;2023-05-10T21:39:35;15.40;99.90
24632;DHT22;59977;48.782;9.190;2023-05-10T21:42:01;16.70;99.90
24632;DHT22;59977;48.782;9.190;2023-05-10T21:44:28;15.80;99.90